Pagina principale
METAR-TAF:

METAR-TAF

Aeroporti :

Frontone, Italia

latitudine: 43-31N, longitudine: 012-44E, altezza: 570 m

Osservazione

Il bollettino è stato emesso 1 ora e 9 minuti fa, alle 11:55 UTC
Vento 4 kt da nord/nord-est
Temperature 12°C
Umidità 62%
Pressione 1011 hPa
Visibilità 10 km o più
Nubi sparse ad un'altezza di 3100 ft

METAR: LIVF 211155Z 03004KT 9999 SCT031 12/05 Q1011 RMK BKN SCT200 MON S W CLD SCT ELEV SLW VAL NIL VIS MIN 9999

Ora: 14:04 (13:04 UTC)


TAF: mancante

Osservazioni e previsioni meteorologiche di più di 4000 aeroporti (messaggi METAR e TAF).

Le stazioni disponibili sono rappresentate dai dischi gialli e rossi sulla carta.

Puntare il mouse per vedere il nome della stazione.

Clicca sopra per visualizzare le osservazioni e previsioni meteorologiche.

Per cambiare la mappa : fare clic sui pulsanti verdi con una croce nera per ingrandire, il pulsante verde con un trattino per diminuire, o sulla freccia verde per le mappe adiacenti.


METAR-TAF: